Bookmark and Share
Track history (hours):
 

Shinkai Maru

Last reported at 2014-Apr-24 21:32 UTC. Time now 2014-Apr-24 22:04 UTC.
Position N 35°41' E 139°58'.

Length 76 m; draft 4.5 m.

Type: Cargo ship. MMSI: 431301346.

NotesDate/timePositionNaut miles runAvg speedWind from/ knotsBaromVisibWave heightAir tempDewpointWater temp
2014-Apr-24 21:32N 35°41' E 139°58'0 0.0
2014-Apr-24 20:32N 35°41' E 139°58'0 0.0
2014-Apr-24 19:26N 35°41' E 139°58'0 0.0
2014-Apr-24 18:29N 35°41' E 139°58'0 0.0
2014-Apr-24 17:32N 35°41' E 139°58'0 0.0
2014-Apr-24 16:32N 35°41' E 139°58'0 0.0
2014-Apr-24 15:32N 35°41' E 139°58'0 0.0
2014-Apr-24 14:32N 35°41' E 139°58'0 0.0
2014-Apr-24 13:32N 35°41' E 139°58'0 0.0
2014-Apr-24 12:32N 35°41' E 139°58'0 0.0
2014-Apr-24 11:32N 35°41' E 139°58'0 0.0
2014-Apr-24 10:29N 35°41' E 139°58'0 0.0
2014-Apr-24 09:29N 35°41' E 139°58'0 0.0
2014-Apr-24 08:32N 35°41' E 139°58'0 0.0
2014-Apr-24 07:32N 35°41' E 139°58'0 0.0
2014-Apr-24 06:32N 35°41' E 139°58'0 0.0
2014-Apr-24 05:26N 35°41' E 139°58'0 0.0
2014-Apr-24 04:32N 35°41' E 139°58'0 0.0
2014-Apr-24 03:32N 35°41' E 139°58'0 0.0
2014-Apr-24 02:32N 35°41' E 139°58'0 0.0
2014-Apr-24 01:32N 35°41' E 139°58'0 0.0
2014-Apr-24 00:32N 35°41' E 139°58'0 0.0
2014-Apr-23 23:29N 35°41' E 139°58'0 0.0
2014-Apr-23 22:32N 35°41' E 139°58'0 0.0
2014-Apr-23 21:32N 35°41' E 139°58'0 0.0
2014-Apr-23 20:32N 35°41' E 139°58'0 0.0
2014-Apr-23 19:23N 35°41' E 139°58'0 0.0
2014-Apr-23 18:32N 35°41' E 139°58'0 0.0
2014-Apr-23 17:32N 35°41' E 139°58'0 0.0
2014-Apr-23 16:32N 35°41' E 139°58'0 0.0
2014-Apr-23 15:26N 35°41' E 139°58'0 0.0
2014-Apr-23 14:23N 35°41' E 139°58'0 0.0
2014-Apr-23 13:29N 35°41' E 139°58'3 2.7
2014-Apr-23 12:33N 35°38' E 139°58'1212.3
2014-Apr-23 11:33N 35°28' E 139°51'1111.4
2014-Apr-23 10:33N 35°17' E 139°45'1211.6
2014-Apr-23 09:33N 35°06' E 139°44'51 1.9
2014-Apr-22 06:27N 35°07' E 138°42'184 8.0
2014-Apr-21 07:33N 34°27' E 135°04'1212.1
2014-Apr-21 06:33N 34°37' E 135°13'6 5.7
2014-Apr-21 05:33N 34°42' E 135°15'0 0.0
2014-Apr-21 04:28N 34°42' E 135°15'0 0.0
2014-Apr-21 03:22N 34°42' E 135°15'0 0.0
2014-Apr-21 02:28N 34°42' E 135°15'0 0.0
2014-Apr-21 01:28N 34°42' E 135°15'0 0.0
2014-Apr-21 00:04N 34°42' E 135°15'0 0.0
2014-Apr-20 23:10N 34°42' E 135°15'0 0.0
2014-Apr-20 22:16N 34°42' E 135°15'0 0.0
2014-Apr-20 21:28N 34°42' E 135°15'0 0.0
2014-Apr-20 20:28N 34°42' E 135°15'0 0.0
2014-Apr-20 19:28N 34°42' E 135°15'0 0.0
2014-Apr-20 18:28N 34°42' E 135°15'0 0.0
2014-Apr-20 17:28N 34°42' E 135°15'0 0.0
2014-Apr-20 16:16N 34°42' E 135°15'0 0.0
2014-Apr-20 15:28N 34°42' E 135°15'0 0.0
2014-Apr-20 14:22N 34°42' E 135°15'0 0.0
2014-Apr-20 13:22N 34°42' E 135°15'0 0.0
2014-Apr-20 12:28N 34°42' E 135°15'0 0.0
2014-Apr-20 11:28N 34°42' E 135°15'0 0.0
2014-Apr-20 10:29N 34°42' E 135°15'4 4.3
2014-Apr-20 09:33N 34°39' E 135°17'8 8.0
2014-Apr-20 08:33N 34°38' E 135°27'0 0.0
2014-Apr-20 07:33N 34°38' E 135°27'0 0.0
2014-Apr-20 06:33N 34°38' E 135°27'0 0.0
2014-Apr-20 05:33N 34°38' E 135°27'0 0.0
2014-Apr-20 04:33N 34°38' E 135°27'1 0.8
2014-Apr-20 03:33N 34°38' E 135°27'4 2.9
2014-Apr-20 02:21N 34°37' E 135°22'0 0.0
2014-Apr-20 00:27N 34°37' E 135°22'0 0.0
2014-Apr-19 23:26N 34°37' E 135°22'4 3.5
2014-Apr-19 22:25N 34°39' E 135°26'0 0.0
2014-Apr-19 21:31N 34°39' E 135°26'0 0.0
2014-Apr-19 20:31N 34°39' E 135°26'0 0.0
2014-Apr-19 19:25N 34°39' E 135°26'0 0.0
2014-Apr-19 18:31N 34°39' E 135°26'0 0.0
2014-Apr-19 17:31N 34°39' E 135°26'0 0.0
2014-Apr-19 16:31N 34°39' E 135°26'0 0.0
2014-Apr-19 15:31N 34°39' E 135°26'0 0.0
2014-Apr-19 14:31N 34°39' E 135°26'0 0.0
2014-Apr-19 13:31N 34°39' E 135°26'0 0.0
2014-Apr-19 12:31N 34°39' E 135°26'0 0.0
2014-Apr-19 11:25N 34°39' E 135°26'0 0.0
2014-Apr-19 10:31N 34°39' E 135°26'0 0.0
2014-Apr-19 09:25N 34°39' E 135°26'0 0.0
2014-Apr-19 08:31N 34°39' E 135°26'0 0.0
2014-Apr-19 07:25N 34°39' E 135°26'0 0.0
2014-Apr-19 06:25N 34°39' E 135°26'0 0.0
2014-Apr-19 05:31N 34°39' E 135°26'0 0.0
2014-Apr-19 04:19N 34°39' E 135°26'0 0.0
2014-Apr-19 03:31N 34°39' E 135°26'0 0.0
2014-Apr-19 02:31N 34°39' E 135°26'0 0.0
2014-Apr-19 01:25N 34°39' E 135°26'0 0.0
2014-Apr-19 00:25N 34°39' E 135°26'0 0.1
2014-Apr-18 23:31N 34°39' E 135°26'0 0.0
2014-Apr-18 22:31N 34°39' E 135°26'0 0.0
2014-Apr-18 21:31N 34°39' E 135°26'0 0.0
2014-Apr-18 20:25N 34°39' E 135°26'0 0.0
2014-Apr-18 19:31N 34°39' E 135°26'0 0.0
2014-Apr-18 18:31N 34°39' E 135°26'0 0.0
2014-Apr-18 17:31N 34°39' E 135°26'0 0.0
2014-Apr-18 16:31N 34°39' E 135°26'0 0.0
2014-Apr-18 15:31N 34°39' E 135°26'0 0.0
2014-Apr-18 14:31N 34°39' E 135°26'0 0.0
2014-Apr-18 13:31N 34°39' E 135°26'0 0.0
2014-Apr-18 12:31N 34°39' E 135°26'0 0.0
2014-Apr-18 11:25N 34°39' E 135°26'0 0.0
2014-Apr-18 10:19N 34°39' E 135°26'0 0.0
2014-Apr-18 08:25N 34°39' E 135°26'0 0.0
2014-Apr-18 07:31N 34°39' E 135°26'0 0.0
2014-Apr-18 06:13N 34°39' E 135°26'0 0.0
2014-Apr-18 05:31N 34°39' E 135°26'0 0.0
2014-Apr-18 04:25N 34°39' E 135°26'0 0.0
2014-Apr-18 03:31N 34°39' E 135°26'0 0.0
2014-Apr-18 02:19N 34°39' E 135°26'0 0.0
2014-Apr-18 01:31N 34°39' E 135°26'0 0.0
2014-Apr-18 00:31N 34°39' E 135°26'0 0.0
2014-Apr-17 23:25N 34°39' E 135°26'0 0.0
2014-Apr-17 22:19N 34°39' E 135°26'0 0.0
2014-Apr-17 21:31N 34°39' E 135°26'0 0.0
2014-Apr-17 20:25N 34°39' E 135°26'0 0.0
2014-Apr-17 19:31N 34°39' E 135°26'0 0.0
2014-Apr-17 18:31N 34°39' E 135°26'0 0.0
2014-Apr-17 17:31N 34°39' E 135°26'0 0.0
2014-Apr-17 16:31N 34°39' E 135°26'0 0.0
2014-Apr-17 15:31N 34°39' E 135°26'0 0.0
2014-Apr-17 14:19N 34°39' E 135°26'0 0.0
2014-Apr-17 13:31N 34°39' E 135°26'0 0.0
2014-Apr-17 12:19N 34°39' E 135°26'0 0.0
2014-Apr-17 11:19N 34°39' E 135°26'0 0.0
2014-Apr-17 08:19N 34°39' E 135°26'0 0.0
2014-Apr-17 07:31N 34°39' E 135°26'0 0.0
2014-Apr-17 06:31N 34°39' E 135°26'0 0.0
2014-Apr-17 05:31N 34°39' E 135°26'0 0.0
2014-Apr-17 04:25N 34°39' E 135°26'0 0.0
2014-Apr-17 03:31N 34°39' E 135°26'0 0.0
2014-Apr-17 02:31N 34°39' E 135°26'0 0.0
2014-Apr-17 01:31N 34°39' E 135°26'3 2.8
2014-Apr-17 00:33N 34°38' E 135°23'1212.0
2014-Apr-16 23:32N 34°29' E 135°13'1312.8
2014-Apr-16 22:32N 34°18' E 135°04'1312.8
2014-Apr-16 21:33N 34°06' E 135°03'223 9.7
2014-Apr-15 22:33N 34°57' E 139°27'1312.6
2014-Apr-15 21:33N 35°06' E 139°39'1211.9
2014-Apr-15 20:33N 35°16' E 139°46'10 9.8
2014-Apr-15 19:33N 35°25' E 139°46'6 6.0
2014-Apr-15 18:33N 35°21' E 139°51'0 0.0
2014-Apr-15 17:30N 35°21' E 139°51'0 0.0
2014-Apr-15 16:33N 35°21' E 139°51'0 0.0
2014-Apr-15 15:33N 35°21' E 139°51'0 0.0
2014-Apr-15 14:30N 35°21' E 139°51'0 0.0
2014-Apr-15 12:34N 35°21' E 139°51'0 0.0
2014-Apr-15 11:31N 35°21' E 139°51'0 0.0
2014-Apr-15 10:34N 35°21' E 139°51'0 0.0
2014-Apr-15 09:31N 35°21' E 139°51'0 0.0
2014-Apr-15 08:34N 35°21' E 139°51'1 0.7
2014-Apr-15 06:34N 35°22' E 139°50'0 0.0
2014-Apr-15 05:34N 35°22' E 139°50'0 0.0
2014-Apr-15 03:33N 35°22' E 139°50'0 0.0
2014-Apr-15 02:33N 35°22' E 139°50'9 9.1
2014-Apr-15 01:34N 35°27' E 139°41'0 0.3
2014-Apr-15 00:33N 35°27' E 139°41'0 0.0
2014-Apr-14 23:33N 35°27' E 139°41'0 0.0
2014-Apr-14 22:33N 35°27' E 139°41'0 0.0
2014-Apr-14 21:33N 35°27' E 139°41'  

Dump ship's entire track history

sailing weather and tide predictions

Shinkai Maru — JJ4012 — position and weather